»·PEaware :: N64SB 1CL1-L52

N64SB :: 1CL1-L52

FLIGHT INFORMATION

Flight Status: Arrived
Operator: Privately registered:
United States
More flights under this callsign
Pilot: Gilberto G. (19539)
Aircraft: Unknown
(PIPA)
More flights by this aircraft type
Origin: 1CL1 Little Buttes Antique Airfield
United States
Destination: L52 Oceano Co
United States
More flights between these airports :: More routes between these airports
Route: GMN FLW
File this flight plan on PilotEdge
Remarks:
Altitude:
(Current/Filed)
12,500ft
Speed:
(Current/Filed)
200kts
Departed: 22-Oct-18 06:07 PM
Arrived: 22-Oct-18 06:50 PM
Distance/Time
Traveled:
117nm/0:43
Distance/Time
To Go:
Arrived

Flight Plot

Page will automatically refresh every two minutes.

Flight plan parsing failed; only flown route is shown


Map Options




Map Legend


Flown Route
Filed Route
Departure Airport
Arrival Airport
Navaid (VOR, NDB)
Fix

Horizontal Profiles

Position Reports

Time Latitude Longitude Heading Altitude Ground
Speed
22-Oct-18 17:59 34.794147 -118.277577 0 2430ft 0kts
22-Oct-18 18:00 34.794147 -118.277577 0 2430ft 0kts
22-Oct-18 18:01 34.794147 -118.277577 0 2430ft 0kts
22-Oct-18 18:02 34.794147 -118.277577 0 2430ft 0kts
22-Oct-18 18:03 34.794147 -118.277577 0 2430ft 0kts
22-Oct-18 18:04 34.794175 -118.277577 359 2430ft 2kts
22-Oct-18 18:05 34.795072 -118.274813 68 2427ft 11kts
22-Oct-18 18:06 34.795481 -118.273119 67 2424ft 0kts
22-Oct-18 18:07 34.795542 -118.272916 93 2424ft 0kts
22-Oct-18 18:08 34.795176 -118.273097 238 2424ft 8kts
22-Oct-18 18:09 34.793184 -118.299554 277 3275ft 114kts
22-Oct-18 18:10 34.793193 -118.338009 271 4494ft 117kts
22-Oct-18 18:11 34.793439 -118.377854 271 5619ft 120kts
22-Oct-18 18:12 34.794142 -118.418755 271 6671ft 123kts
22-Oct-18 18:13 34.795294 -118.460390 271 7720ft 124kts
22-Oct-18 18:14 34.796795 -118.502673 271 8738ft 126kts
22-Oct-18 18:15 34.798462 -118.544246 271 9715ft 128kts
22-Oct-18 18:16 34.800263 -118.587996 271 11070ft 131kts
22-Oct-18 18:17 34.801912 -118.631665 271 12412ft 135kts
22-Oct-18 18:18 34.803552 -118.682468 269 12597ft 183kts
22-Oct-18 18:19 34.804595 -118.747654 269 12593ft 199kts
22-Oct-18 18:20 34.805405 -118.814510 269 12592ft 203kts
22-Oct-18 18:21 34.806277 -118.883166 281 12582ft 205kts
22-Oct-18 18:22 34.828282 -118.945875 294 12592ft 204kts
22-Oct-18 18:23 34.849451 -119.010030 288 12592ft 204kts
22-Oct-18 18:24 34.868067 -119.075151 288 12575ft 204kts
22-Oct-18 18:25 34.886794 -119.140605 288 12528ft 205kts
22-Oct-18 18:26 34.905581 -119.205803 289 12479ft 205kts
22-Oct-18 18:27 34.924545 -119.271012 289 12440ft 205kts
22-Oct-18 18:28 34.943692 -119.336247 289 12434ft 203kts
22-Oct-18 18:29 34.962969 -119.401318 289 12437ft 203kts
22-Oct-18 18:30 34.981750 -119.465379 286 12438ft 202kts
22-Oct-18 18:31 34.998998 -119.530036 289 12451ft 202kts
22-Oct-18 18:32 35.018479 -119.594228 289 12470ft 201kts
22-Oct-18 18:33 35.037080 -119.657152 286 12486ft 201kts
22-Oct-18 18:34 35.054504 -119.722340 288 12498ft 201kts
22-Oct-18 18:35 35.074166 -119.786282 288 12502ft 201kts
22-Oct-18 18:36 35.093656 -119.850221 286 12501ft 201kts
22-Oct-18 18:37 35.097579 -119.917514 269 12492ft 195kts
22-Oct-18 18:38 35.098251 -119.983892 268 11377ft 195kts
22-Oct-18 18:39 35.098823 -120.049491 268 10384ft 190kts
22-Oct-18 18:40 35.099461 -120.112951 269 9440ft 186kts
22-Oct-18 18:41 35.099296 -120.175391 268 8451ft 181kts
22-Oct-18 18:42 35.098958 -120.235968 268 7503ft 177kts
22-Oct-18 18:43 35.098749 -120.295616 270 6537ft 173kts
22-Oct-18 18:44 35.099325 -120.353379 267 5571ft 169kts
22-Oct-18 18:45 35.093617 -120.410145 262 4608ft 166kts
22-Oct-18 18:46 35.081208 -120.464062 248 3841ft 165kts
22-Oct-18 18:47 35.062625 -120.513550 243 2976ft 144kts
22-Oct-18 18:48 35.060163 -120.547098 294 2179ft 95kts
22-Oct-18 18:49 35.074281 -120.572585 307 1242ft 74kts
22-Oct-18 18:50 35.085857 -120.593155 305 853ft 70kts
22-Oct-18 18:51 35.096283 -120.612469 305 211ft 64kts
22-Oct-18 18:52 35.101982 -120.622169 341 17ft 12kts
22-Oct-18 18:53 35.102475 -120.622925 213 17ft 0kts
22-Oct-18 18:54 35.102476 -120.622925 213 17ft 0kts
22-Oct-18 18:55 35.102476 -120.622925 213 17ft 0kts
22-Oct-18 18:56 35.102476 -120.622925 213 17ft 0kts
22-Oct-18 18:57 35.102476 -120.622925 213 17ft 0kts
22-Oct-18 18:58 35.102476 -120.622925 213 17ft 0kts
22-Oct-18 18:59 35.102476 -120.622925 213 17ft 0kts
22-Oct-18 19:00 35.102476 -120.622925 213 17ft 0kts
22-Oct-18 19:01 35.102476 -120.622925 213 17ft 0kts
22-Oct-18 19:02 35.102476 -120.622925 213 17ft 0kts
22-Oct-18 19:03 35.102476 -120.622925 213 17ft 0kts
22-Oct-18 19:04 35.102476 -120.622925 213 17ft 0kts
22-Oct-18 19:05 35.102476 -120.622925 213 17ft 0kts
22-Oct-18 19:06 35.102476 -120.622925 213 17ft 0kts

Navigation Log

Ident Type
Flight plan parsing failed, navigation log unavailable